Time;durP1;ratioP1;P1;durP2;ratioP2;P2;SDS_P1;SDS_P2;PMS_P1;PMS_P2;Temp;Humidity;BMP_temperature;BMP_pressure;BME280_temperature;BME280_humidity;BME280_pressure;Samples;Min_cycle;Max_cycle;Signal;HPM_P1;HPM_P2
2022/12/14 00:01:11;;;;;;;44.00;28.40;;;;;;;2.64;65.43;94319.34;4229234;28;20052;-53
2022/12/14 00:03:14;;;;;;;41.80;27.70;;;;;;;2.67;65.65;94324.31;4229779;28;20051;-55
2022/12/14 00:05:18;;;;;;;48.90;31.67;;;;;;;2.65;65.71;94328.78;4216250;28;20061;-53
2022/12/14 00:07:20;;;;;;;43.58;29.00;;;;;;;2.66;66.15;94331.22;4230080;28;20055;-54
2022/12/14 00:09:21;;;;;;;46.83;29.17;;;;;;;2.69;66.20;94324.16;4229948;28;20609;-56
2022/12/14 00:11:23;;;;;;;47.33;30.45;;;;;;;2.69;66.67;94331.91;4215227;28;20476;-56
2022/12/14 00:13:25;;;;;;;48.60;28.58;;;;;;;2.70;66.72;94338.75;4229751;28;20043;-51
2022/12/14 00:15:27;;;;;;;46.15;29.15;;;;;;;2.68;66.67;94336.28;4228355;28;20059;-55
2022/12/14 00:17:28;;;;;;;48.55;30.35;;;;;;;2.65;66.85;94333.94;4229805;28;20073;-56
2022/12/14 00:19:30;;;;;;;46.03;29.70;;;;;;;2.56;67.34;94338.06;4228069;28;20059;-57
2022/12/14 00:21:32;;;;;;;48.70;31.80;;;;;;;2.62;67.58;94339.34;4212909;28;20051;-55
2022/12/14 00:23:34;;;;;;;48.28;30.90;;;;;;;2.57;67.27;94331.94;4221527;28;20051;-54
2022/12/14 00:25:39;;;;;;;45.92;29.60;;;;;;;2.60;67.87;94343.81;4217004;28;20141;-51
2022/12/14 00:27:43;;;;;;;46.03;30.52;;;;;;;2.53;68.09;94340.06;4220502;28;20059;-52
2022/12/14 00:29:45;;;;;;;43.65;29.63;;;;;;;2.51;68.07;94335.00;4215903;28;20112;-51
2022/12/14 00:31:46;;;;;;;43.03;29.55;;;;;;;2.53;68.58;94332.31;4229414;28;20348;-54
2022/12/14 00:33:50;;;;;;;49.20;30.67;;;;;;;2.49;68.48;94326.53;4182950;28;20087;-52
2022/12/14 00:35:52;;;;;;;42.58;27.95;;;;;;;2.50;68.81;94333.38;4206121;28;20161;-54
2022/12/14 00:37:53;;;;;;;42.10;29.70;;;;;;;2.51;68.99;94335.00;4214018;28;20691;-50
2022/12/14 00:39:55;;;;;;;47.92;30.35;;;;;;;2.54;69.23;94331.34;4224956;28;20036;-54
2022/12/14 00:41:57;;;;;;;50.00;31.35;;;;;;;2.51;69.38;94329.81;4220892;28;20146;-55
2022/12/14 00:43:58;;;;;;;45.40;30.00;;;;;;;2.53;69.31;94332.31;4217386;28;20052;-52
2022/12/14 00:46:00;;;;;;;46.53;30.90;;;;;;;2.57;69.50;94328.53;4195378;28;20078;-53
2022/12/14 00:48:02;;;;;;;45.85;30.17;;;;;;;2.50;69.77;94329.97;4202984;28;20052;-53
2022/12/14 00:50:04;;;;;;;45.50;29.73;;;;;;;2.48;69.63;94340.41;4211252;28;20456;-54
2022/12/14 00:52:06;;;;;;;46.88;30.30;;;;;;;2.43;70.13;94338.19;4198804;28;20409;-53
2022/12/14 00:54:08;;;;;;;47.20;30.00;;;;;;;2.19;70.73;94343.47;4208565;28;20473;-53
2022/12/14 00:56:10;;;;;;;46.08;31.48;;;;;;;2.13;71.56;94343.97;4216479;28;20139;-54
2022/12/14 00:58:13;;;;;;;47.50;30.58;;;;;;;2.18;71.73;94348.78;4226461;28;20139;-56
2022/12/14 01:00:15;;;;;;;49.20;33.80;;;;;;;2.15;71.89;94343.81;4207230;28;20536;-54
2022/12/14 01:02:17;;;;;;;51.15;32.85;;;;;;;2.19;71.91;94343.47;4204515;28;20070;-53
2022/12/14 01:04:21;;;;;;;48.58;33.10;;;;;;;2.13;72.00;94335.34;4199259;28;20580;-54
2022/12/14 01:06:22;;;;;;;48.35;31.88;;;;;;;2.03;72.02;94328.31;4195459;28;20652;-53
2022/12/14 01:08:24;;;;;;;44.22;30.90;;;;;;;1.89;72.73;94335.47;4183810;28;20059;-52
2022/12/14 01:10:26;;;;;;;49.00;32.75;;;;;;;1.93;72.98;94337.69;4203225;28;20063;-50
2022/12/14 01:12:28;;;;;;;50.10;33.83;;;;;;;2.01;73.11;94337.94;4196226;28;20060;-50
2022/12/14 01:14:30;;;;;;;46.78;32.40;;;;;;;1.97;72.71;94335.72;4208728;28;20056;-53
2022/12/14 01:16:31;;;;;;;46.70;31.50;;;;;;;1.97;73.37;94330.53;4202463;28;20067;-54
2022/12/14 01:18:35;;;;;;;39.40;27.55;;;;;;;1.92;73.62;94333.47;4212239;28;20090;-54
2022/12/14 01:20:36;;;;;;;44.63;27.75;;;;;;;1.97;73.51;94328.78;4196262;28;20137;-50
2022/12/14 01:22:38;;;;;;;41.28;27.98;;;;;;;2.04;73.41;94331.72;4199397;28;20071;-55
2022/12/14 01:24:42;;;;;;;38.40;26.88;;;;;;;2.15;73.35;94339.50;4204986;28;20488;-54
2022/12/14 01:26:44;;;;;;;38.25;25.20;;;;;;;2.26;72.98;94330.94;4206967;28;20373;-55
2022/12/14 01:28:47;;;;;;;32.90;22.42;;;;;;;2.35;73.01;94324.22;4198373;28;20056;-58
2022/12/14 01:30:49;;;;;;;34.03;23.50;;;;;;;2.48;72.69;94318.94;4218287;28;20060;-55
2022/12/14 01:32:50;;;;;;;33.28;22.05;;;;;;;2.59;72.32;94316.31;4222136;28;20104;-54
2022/12/14 01:34:52;;;;;;;30.23;20.55;;;;;;;2.62;72.05;94310.88;4205559;28;20078;-54
2022/12/14 01:36:54;;;;;;;26.88;19.75;;;;;;;2.62;71.95;94309.16;4213409;28;20072;-56
2022/12/14 01:39:01;;;;;;;26.10;17.88;;;;;;;2.68;71.61;94318.16;4222396;28;20052;-55
2022/12/14 01:41:06;;;;;;;22.95;15.88;;;;;;;2.71;71.41;94302.44;4195389;28;20333;-53
2022/12/14 01:43:13;;;;;;;23.88;15.65;;;;;;;2.78;71.06;94300.19;4223535;28;20137;-51
2022/12/14 01:45:17;;;;;;;23.48;16.63;;;;;;;2.83;70.58;94298.03;4201190;28;20425;-53
2022/12/14 01:47:37;;;;;;;20.15;14.30;;;;;;;2.76;70.66;94289.13;4195265;28;20061;-53
2022/12/14 01:49:43;;;;;;;18.55;12.77;;;;;;;2.69;70.87;94293.13;4188681;28;20060;-53
2022/12/14 01:51:56;;;;;;;17.15;12.20;;;;;;;2.60;70.42;94302.44;4227086;28;20100;-56
2022/12/14 01:53:58;;;;;;;16.15;11.60;;;;;;;2.52;70.76;94297.88;4223105;28;20051;-53
2022/12/14 01:56:00;;;;;;;13.20;10.57;;;;;;;2.53;70.51;94291.75;4228940;28;20113;-56
2022/12/14 01:58:07;;;;;;;15.23;10.70;;;;;;;2.52;70.36;94289.28;4203559;28;20044;-56
2022/12/14 02:00:12;;;;;;;19.35;11.15;;;;;;;2.48;70.65;94291.28;4193707;28;20056;-53
2022/12/14 02:02:16;;;;;;;16.08;10.93;;;;;;;2.55;71.02;94287.28;4213407;28;20377;-56
2022/12/14 02:04:18;;;;;;;;;;;;;;;2.60;71.11;94281.75;4227869;28;20634;-56
2022/12/14 02:06:28;;;;;;;13.80;11.07;;;;;;;2.59;70.81;94295.63;4205761;28;19932;-56
2022/12/14 02:08:31;;;;;;;15.13;11.00;;;;;;;2.59;70.59;94298.22;4201690;28;20102;-56
2022/12/14 02:10:33;;;;;;;17.55;11.77;;;;;;;2.58;70.46;94294.81;4195265;28;20128;-54
2022/12/14 02:12:43;;;;;;;16.25;11.48;;;;;;;2.56;70.73;94290.69;4183938;28;20048;-54
2022/12/14 02:14:45;;;;;;;14.70;10.85;;;;;;;2.50;71.04;94291.19;4200951;28;20076;-52
2022/12/14 02:16:50;;;;;;;15.45;11.20;;;;;;;2.51;70.83;94283.28;4199403;28;20056;-53
2022/12/14 02:18:51;;;;;;;18.25;11.35;;;;;;;2.32;70.80;94286.47;4192185;28;20076;-50
2022/12/14 02:21:23;;;;;;;15.73;10.88;;;;;;;2.09;71.63;94282.25;4203742;28;20179;-55
2022/12/14 02:23:40;;;;;;;14.57;10.90;;;;;;;2.12;71.93;94276.88;4204884;28;20051;-51
2022/12/14 02:25:48;;;;;;;16.70;11.20;;;;;;;2.09;71.62;94277.94;4206262;28;20246;-54
2022/12/14 02:27:53;;;;;;;15.85;10.95;;;;;;;2.11;72.27;94272.63;4191538;28;20068;-54
2022/12/14 02:30:05;;;;;;;15.45;10.57;;;;;;;2.19;71.89;94270.28;4217947;28;20052;-55
2022/12/14 02:32:13;;;;;;;15.43;10.85;;;;;;;2.23;71.50;94269.13;4194106;28;20118;-51
2022/12/14 02:34:18;;;;;;;15.75;11.05;;;;;;;2.36;71.74;94264.63;4209893;28;20055;-53
2022/12/14 02:36:27;;;;;;;16.30;11.55;;;;;;;2.40;71.30;94265.22;4196756;28;20514;-52
2022/12/14 02:38:38;;;;;;;15.60;11.80;;;;;;;2.43;70.99;94265.81;4180700;28;20399;-51
2022/12/14 02:40:46;;;;;;;15.65;11.30;;;;;;;2.36;70.57;94272.38;4209266;28;20090;-52
2022/12/14 02:43:00;;;;;;;14.25;10.30;;;;;;;2.18;70.87;94274.63;4213701;28;20476;-50
2022/12/14 02:45:18;;;;;;;16.23;10.93;;;;;;;2.23;71.54;94264.75;4187544;28;20064;-54
2022/12/14 02:47:19;;;;;;;16.10;10.70;;;;;;;2.33;71.07;94261.47;4212248;28;20121;-55
2022/12/14 02:49:59;;;;;;;13.45;10.13;;;;;;;2.40;70.93;94260.03;4199924;28;20055;-55
2022/12/14 02:52:09;;;;;;;14.55;10.63;;;;;;;2.38;70.48;94257.56;4210556;28;20047;-53
2022/12/14 02:54:16;;;;;;;12.20;9.93;;;;;;;2.32;70.37;94257.22;4192171;28;20048;-55
2022/12/14 02:56:22;;;;;;;13.55;9.93;;;;;;;1.79;71.29;94263.03;4192238;28;20110;-55
2022/12/14 02:58:37;;;;;;;13.35;8.93;;;;;;;1.49;72.20;94264.41;4220343;28;20384;-52
2022/12/14 03:00:39;;;;;;;13.48;9.88;;;;;;;1.46;73.20;94264.59;4206780;28;20044;-51
2022/12/14 03:02:42;;;;;;;15.98;11.02;;;;;;;1.50;72.96;94260.06;4225119;28;20047;-54
2022/12/14 03:04:48;;;;;;;15.82;10.82;;;;;;;1.49;73.08;94256.66;4206051;28;20051;-54
2022/12/14 03:06:58;;;;;;;13.70;10.23;;;;;;;1.57;72.97;94262.06;4207341;28;20075;-56
2022/12/14 03:09:10;;;;;;;12.50;9.65;;;;;;;1.58;72.01;94255.97;4223598;28;20127;-56
2022/12/14 03:11:19;;;;;;;13.82;10.35;;;;;;;1.73;72.52;94264.31;4208299;28;20056;-55
2022/12/14 03:13:25;;;;;;;16.88;10.77;;;;;;;1.87;71.92;94254.69;4224611;28;20051;-55
2022/12/14 03:15:28;;;;;;;15.05;10.30;;;;;;;2.04;71.26;94260.22;4223937;28;20055;-57
2022/12/14 03:17:33;;;;;;;14.13;9.53;;;;;;;2.11;70.07;94257.13;4225295;28;20124;-58
2022/12/14 03:19:37;;;;;;;14.00;9.32;;;;;;;2.10;69.56;94258.91;4214164;28;20052;-57
2022/12/14 03:21:43;;;;;;;12.88;9.88;;;;;;;2.14;69.78;94252.56;4202443;28;20055;-57
2022/12/14 03:23:47;;;;;;;12.48;9.00;;;;;;;2.21;69.82;94251.13;4184648;28;20052;-55
2022/12/14 03:26:05;;;;;;;10.63;9.10;;;;;;;2.25;69.54;94242.19;4225781;28;20050;-53
2022/12/14 03:28:16;;;;;;;13.00;9.40;;;;;;;2.25;69.08;94241.38;4205550;28;20121;-56
2022/12/14 03:30:18;;;;;;;11.05;8.55;;;;;;;2.27;68.73;94231.75;4182417;28;20524;-52
2022/12/14 03:32:47;;;;;;;11.95;8.75;;;;;;;2.22;68.22;94244.22;4194032;28;20517;-53
2022/12/14 03:35:01;;;;;;;13.30;9.07;;;;;;;2.03;68.32;94253.38;4191200;28;20063;-52
2022/12/14 03:37:10;;;;;;;11.63;8.50;;;;;;;1.88;68.57;94252.00;4217340;28;20052;-52
2022/12/14 03:39:17;;;;;;;10.73;8.45;;;;;;;1.85;68.96;94252.25;4203888;28;20448;-52
2022/12/14 03:41:27;;;;;;;15.63;9.30;;;;;;;1.83;69.09;94248.94;4192366;28;20130;-55
2022/12/14 03:43:44;;;;;;;10.80;8.68;;;;;;;1.67;69.23;94263.94;4210148;28;20091;-55
2022/12/14 03:46:00;;;;;;;12.43;9.25;;;;;;;1.45;70.16;94267.34;4177934;28;20444;-54
2022/12/14 03:48:08;;;;;;;13.38;9.55;;;;;;;1.60;70.51;94261.81;4185378;28;20159;-54
2022/12/14 03:50:26;;;;;;;12.05;8.73;;;;;;;1.75;69.97;94259.84;4212549;28;20059;-55
2022/12/14 03:52:39;;;;;;;17.55;9.52;;;;;;;1.84;69.48;94246.22;4201062;28;20048;-56
2022/12/14 03:54:52;;;;;;;14.45;10.45;;;;;;;1.96;69.81;94249.66;4195144;28;20083;-54
2022/12/14 03:57:40;;;;;;;12.82;9.77;;;;;;;2.09;69.44;94239.19;4213222;28;20051;-54
2022/12/14 04:00:03;;;;;;;11.90;9.68;;;;;;;2.11;68.29;94239.88;4198091;28;20547;-54
2022/12/14 04:02:20;;;;;;;13.63;10.07;;;;;;;2.18;68.86;94253.16;4186049;28;20052;-54
2022/12/14 04:04:48;;;;;;;13.30;9.57;;;;;;;2.27;68.53;94247.25;4195744;28;20056;-56
2022/12/14 04:07:01;;;;;;;12.60;9.38;;;;;;;2.39;68.11;94254.06;4207189;28;20427;-53
2022/12/14 04:09:15;;;;;;;15.55;10.02;;;;;;;2.48;67.02;94256.88;4180353;28;20068;-51
2022/12/14 04:21:06;;;;;;;11.35;8.77;;;;;;;2.04;69.28;94256.78;4186171;28;20048;-55
2022/12/14 04:23:13;;;;;;;12.30;9.75;;;;;;;2.16;68.62;94258.44;4193535;28;20064;-53
2022/12/14 04:27:48;;;;;;;12.25;9.25;;;;;;;2.44;68.13;94248.53;4216870;28;20051;-54
2022/12/14 04:29:59;;;;;;;12.40;9.18;;;;;;;2.49;67.52;94251.56;4176895;28;20049;-57
2022/12/14 04:32:36;;;;;;;10.50;8.57;;;;;;;2.57;67.56;94250.97;4189613;28;20052;-55
2022/12/14 04:34:39;;;;;;;10.95;8.60;;;;;;;2.69;67.32;94265.50;4212607;28;20159;-53
2022/12/14 04:36:48;;;;;;;12.25;9.40;;;;;;;2.71;66.72;94268.81;4211629;28;20056;-53
2022/12/14 04:38:55;;;;;;;13.68;9.38;;;;;;;2.77;66.22;94260.53;4196641;28;20139;-52
2022/12/14 04:41:01;;;;;;;12.23;9.52;;;;;;;2.57;65.90;94267.28;4202819;28;20435;-54
2022/12/14 04:43:09;;;;;;;14.30;10.32;;;;;;;2.23;66.72;94269.94;4212753;28;20095;-54
2022/12/14 04:45:19;;;;;;;12.55;8.88;;;;;;;2.16;67.47;94271.34;4199485;28;20059;-54
2022/12/14 04:47:27;;;;;;;11.90;8.75;;;;;;;2.14;67.97;94277.59;4183005;28;20173;-54
2022/12/14 04:49:40;;;;;;;13.35;9.25;;;;;;;2.19;67.79;94278.03;4178623;28;20060;-56
2022/12/14 04:51:48;;;;;;;12.85;8.93;;;;;;;2.29;67.55;94276.41;4218170;28;20051;-57
2022/12/14 04:53:55;;;;;;;12.90;8.57;;;;;;;2.39;67.22;94269.56;4202674;28;20455;-58
2022/12/14 04:56:15;;;;;;;12.60;8.55;;;;;;;2.46;66.75;94273.31;4194448;28;20132;-59
2022/12/14 04:58:26;;;;;;;11.52;9.48;;;;;;;2.50;66.61;94266.16;4200531;28;20049;-59
2022/12/14 05:00:31;;;;;;;12.70;8.70;;;;;;;2.56;66.83;94264.81;4208962;28;20064;-56
2022/12/14 05:03:01;;;;;;;13.20;9.55;;;;;;;2.69;66.57;94255.16;4180317;28;20138;-58
2022/12/14 05:05:16;;;;;;;11.85;8.50;;;;;;;2.53;66.09;94257.31;4211818;28;20094;-58
2022/12/14 05:07:24;;;;;;;13.52;9.13;;;;;;;2.52;67.08;94258.25;4186279;28;20061;-57
2022/12/14 05:09:40;;;;;;;13.45;9.23;;;;;;;2.51;66.90;94254.84;4196418;28;20060;-58
2022/12/14 05:11:51;;;;;;;15.30;9.50;;;;;;;2.56;67.19;94257.06;4179872;28;20105;-60
2022/12/14 05:13:55;;;;;;;14.70;9.25;;;;;;;2.53;66.97;94259.91;4198529;28;20082;-56
2022/12/14 05:15:57;;;;;;;15.38;9.00;;;;;;;2.54;66.88;94267.56;4209863;28;20403;-55
2022/12/14 05:18:03;;;;;;;14.57;10.10;;;;;;;2.59;66.61;94270.59;4197946;28;20055;-57
2022/12/14 05:20:06;;;;;;;11.45;8.82;;;;;;;2.56;65.96;94285.50;4178892;28;20140;-57
2022/12/14 05:22:08;;;;;;;12.52;8.90;;;;;;;2.54;66.28;94290.81;4181651;28;20061;-60
2022/12/14 05:24:09;;;;;;;12.35;8.60;;;;;;;2.52;66.05;94294.44;4213512;28;20089;-58
2022/12/14 05:26:11;;;;;;;12.40;8.57;;;;;;;2.54;66.23;94292.56;4202888;28;20064;-58
2022/12/14 05:28:13;;;;;;;14.02;9.32;;;;;;;2.57;66.23;94307.84;4193052;28;20161;-59
2022/12/14 05:30:15;;;;;;;11.82;9.07;;;;;;;2.52;66.58;94304.78;4211784;28;20169;-57
2022/12/14 05:32:17;;;;;;;11.30;8.50;;;;;;;2.50;67.07;94312.69;4208955;28;20056;-59
2022/12/14 05:34:19;;;;;;;13.23;9.13;;;;;;;2.34;66.64;94315.63;4206014;28;20074;-59
2022/12/14 05:36:20;;;;;;;14.02;9.25;;;;;;;2.25;67.62;94313.75;4207591;28;20059;-60
2022/12/14 05:38:22;;;;;;;9.25;7.60;;;;;;;2.27;66.96;94314.47;4206199;28;20445;-61
2022/12/14 05:40:24;;;;;;;11.55;8.07;;;;;;;2.26;66.83;94307.66;4197333;28;20530;-58
2022/12/14 05:42:25;;;;;;;10.10;7.55;;;;;;;2.35;66.73;94294.00;4224281;28;20106;-57
2022/12/14 05:44:27;;;;;;;11.35;7.20;;;;;;;2.38;66.63;94282.59;4222832;28;20515;-55
2022/12/14 05:46:29;;;;;;;9.80;7.57;;;;;;;2.39;66.08;94287.66;4222458;28;20066;-58
2022/12/14 05:48:30;;;;;;;9.80;6.80;;;;;;;2.32;66.10;94281.31;4203254;28;20691;-55
2022/12/14 05:50:32;;;;;;;8.98;6.53;;;;;;;2.17;66.31;94298.00;4210822;28;20046;-54
2022/12/14 05:52:34;;;;;;;10.77;7.28;;;;;;;2.07;67.00;94292.75;4222082;28;20056;-55
2022/12/14 05:54:36;;;;;;;9.82;7.70;;;;;;;2.02;67.87;94302.59;4215240;28;20086;-59
2022/12/14 05:56:37;;;;;;;10.45;8.48;;;;;;;1.89;68.42;94300.13;4217271;28;20157;-58
2022/12/14 05:58:39;;;;;;;11.98;8.38;;;;;;;1.79;69.35;94304.34;4208940;28;20370;-60
2022/12/14 06:00:41;;;;;;;12.55;8.55;;;;;;;1.78;69.43;94300.09;4217470;28;20052;-58
2022/12/14 06:02:42;;;;;;;12.38;9.50;;;;;;;1.83;69.90;94309.16;4207629;28;20051;-53
2022/12/14 06:04:45;;;;;;;12.65;10.15;;;;;;;1.81;69.71;94311.03;4216290;28;20147;-55
2022/12/14 06:06:46;;;;;;;11.85;9.13;;;;;;;1.66;70.25;94308.78;4212700;28;20052;-57
2022/12/14 06:08:48;;;;;;;11.23;8.25;;;;;;;1.67;71.14;94306.09;4211727;28;20137;-61
2022/12/14 06:10:50;;;;;;;11.60;8.68;;;;;;;1.81;71.03;94312.81;4221844;28;20098;-57
2022/12/14 06:12:51;;;;;;;12.30;8.82;;;;;;;1.82;70.42;94307.50;4214346;28;20387;-61
2022/12/14 06:14:53;;;;;;;11.40;8.77;;;;;;;1.83;70.87;94311.75;4218133;28;20506;-55
2022/12/14 06:16:55;;;;;;;12.95;8.90;;;;;;;1.84;71.37;94302.22;4206128;28;20241;-55
2022/12/14 06:18:58;;;;;;;11.88;8.88;;;;;;;1.73;71.40;94308.22;4211977;28;20154;-57
2022/12/14 06:21:00;;;;;;;13.73;10.90;;;;;;;1.73;71.80;94300.47;4218155;28;20039;-57
2022/12/14 06:23:02;;;;;;;10.25;8.98;;;;;;;1.54;72.41;94313.91;4215249;28;20052;-56
2022/12/14 06:25:03;;;;;;;13.60;9.27;;;;;;;1.60;72.56;94322.97;4221125;28;20219;-58
2022/12/14 06:27:06;;;;;;;10.95;8.98;;;;;;;1.45;72.31;94319.78;4216563;28;20123;-59
2022/12/14 06:29:14;;;;;;;12.30;9.02;;;;;;;1.49;73.06;94321.19;4211824;28;20496;-58
2022/12/14 06:31:18;;;;;;;15.25;9.80;;;;;;;1.36;72.83;94323.03;4215500;28;20056;-57
2022/12/14 06:33:20;;;;;;;13.15;9.38;;;;;;;1.28;72.69;94322.78;4210169;28;20477;-59
2022/12/14 06:35:21;;;;;;;13.30;10.23;;;;;;;1.38;72.98;94321.16;4197726;28;20056;-58
2022/12/14 06:37:23;;;;;;;12.07;9.00;;;;;;;1.48;72.55;94324.69;4209287;28;20052;-57
2022/12/14 06:39:25;;;;;;;12.20;9.75;;;;;;;1.51;72.09;94321.91;4210717;28;20071;-58
2022/12/14 06:41:27;;;;;;;13.93;9.98;;;;;;;1.57;71.92;94320.59;4211146;28;20163;-59
2022/12/14 06:43:28;;;;;;;12.05;9.30;;;;;;;1.68;72.30;94320.66;4197778;28;20056;-56
2022/12/14 06:45:30;;;;;;;13.73;10.10;;;;;;;1.72;71.83;94318.66;4222893;28;20058;-57
2022/12/14 06:47:33;;;;;;;13.93;10.07;;;;;;;1.64;71.02;94316.66;4208514;28;20080;-55
2022/12/14 06:49:35;;;;;;;12.15;10.13;;;;;;;1.64;70.85;94322.63;4224908;28;20063;-54
2022/12/14 06:51:38;;;;;;;13.82;10.07;;;;;;;1.70;71.33;94312.78;4227357;28;20444;-57
2022/12/14 06:53:39;;;;;;;11.90;10.20;;;;;;;1.70;71.40;94323.09;4224932;28;20120;-53
2022/12/14 06:55:41;;;;;;;14.23;11.15;;;;;;;1.44;72.07;94323.28;4209591;28;20086;-60
2022/12/14 06:57:43;;;;;;;13.82;11.05;;;;;;;1.38;73.11;94326.31;4220512;28;20080;-59
2022/12/14 06:59:45;;;;;;;17.98;11.50;;;;;;;1.05;73.87;94334.75;4227006;28;20085;-58
2022/12/14 07:01:46;;;;;;;17.83;12.63;;;;;;;0.97;74.99;94345.63;4213366;28;20124;-58
2022/12/14 07:03:54;;;;;;;20.00;14.88;;;;;;;1.03;76.09;94355.47;4213808;28;20661;-55
2022/12/14 07:05:57;;;;;;;20.83;15.40;;;;;;;1.21;76.06;94354.19;4203846;28;20070;-55
2022/12/14 07:07:58;;;;;;;19.60;13.80;;;;;;;1.21;74.32;94346.44;4209532;28;20073;-61
2022/12/14 07:10:01;;;;;;;31.55;20.50;;;;;;;1.02;74.34;94348.69;4194389;28;20125;-60
2022/12/14 07:12:02;;;;;;;20.80;13.55;;;;;;;0.91;74.90;94351.22;4195132;28;20437;-57
2022/12/14 07:14:05;;;;;;;19.80;14.00;;;;;;;0.91;74.88;94346.06;4205903;28;20056;-56
2022/12/14 07:16:12;;;;;;;21.63;14.88;;;;;;;1.12;75.51;94344.53;4208499;28;20087;-54
2022/12/14 07:18:14;;;;;;;18.38;14.68;;;;;;;1.29;74.91;94338.16;4176497;28;20053;-59
2022/12/14 07:20:16;;;;;;;20.38;14.32;;;;;;;1.45;75.05;94334.44;4192941;28;20053;-55
2022/12/14 07:22:18;;;;;;;19.00;14.60;;;;;;;1.49;74.46;94336.69;4205970;28;20056;-57
2022/12/14 07:24:20;;;;;;;22.08;15.70;;;;;;;1.52;73.87;94338.22;4210184;28;20052;-60
2022/12/14 07:26:24;;;;;;;21.90;15.45;;;;;;;1.40;74.13;94345.09;4205202;28;20090;-58
2022/12/14 07:28:26;;;;;;;23.27;15.40;;;;;;;1.45;75.10;94348.16;4194386;28;20052;-58
2022/12/14 07:30:28;;;;;;;21.52;14.40;;;;;;;1.60;74.12;94347.03;4218230;28;20058;-55
2022/12/14 07:32:30;;;;;;;20.92;15.98;;;;;;;1.64;73.20;94350.22;4208886;28;20052;-60
2022/12/14 07:34:50;;;;;;;20.77;15.65;;;;;;;1.75;73.69;94362.34;4219342;28;20568;-60
2022/12/14 07:36:52;;;;;;;22.98;15.38;;;;;;;1.84;72.53;94357.28;4203319;28;20087;-62
2022/12/14 07:38:54;;;;;;;23.83;15.98;;;;;;;1.95;72.74;94368.59;4210219;28;20131;-60
2022/12/14 07:41:14;;;;;;;28.98;21.02;;;;;;;1.99;71.76;94360.50;4204741;28;20048;-59
2022/12/14 07:43:23;;;;;;;21.65;15.18;;;;;;;2.10;71.57;94353.69;4221957;28;20541;-59
2022/12/14 07:45:25;;;;;;;20.83;14.88;;;;;;;1.97;71.11;94356.38;4213862;28;20066;-59
2022/12/14 07:47:30;;;;;;;21.75;15.77;;;;;;;2.03;72.02;94366.25;4213812;28;20052;-55
2022/12/14 07:49:32;;;;;;;18.75;14.05;;;;;;;2.15;71.57;94351.56;4217488;28;20051;-59
2022/12/14 07:51:40;;;;;;;19.70;14.55;;;;;;;2.26;72.00;94354.19;4187628;28;20166;-58
2022/12/14 07:53:41;;;;;;;21.55;15.85;;;;;;;2.40;71.95;94350.53;4215260;28;20512;-58
2022/12/14 07:55:43;;;;;;;20.52;15.77;;;;;;;2.33;71.10;94345.00;4219711;28;20100;-59
2022/12/14 07:57:44;;;;;;;24.75;16.98;;;;;;;2.19;71.51;94350.41;4216993;28;20490;-60
2022/12/14 07:59:48;;;;;;;24.77;16.30;;;;;;;2.16;71.78;94351.47;4220775;28;20056;-57
2022/12/14 08:01:57;;;;;;;25.63;17.80;;;;;;;2.17;71.83;94360.03;4218336;28;20423;-59
2022/12/14 08:04:06;;;;;;;25.13;16.40;;;;;;;1.84;71.72;94367.63;4218718;28;20525;-58
2022/12/14 08:06:10;;;;;;;24.83;18.00;;;;;;;1.66;73.14;94369.00;4200378;28;20143;-53
2022/12/14 08:08:12;;;;;;;47.20;28.77;;;;;;;1.73;74.25;94374.53;4211692;28;20044;-58
2022/12/14 08:10:14;;;;;;;27.35;19.48;;;;;;;1.76;74.33;94380.28;4218830;28;20056;-61
2022/12/14 08:12:15;;;;;;;29.70;18.60;;;;;;;1.79;74.40;94376.66;4219964;28;20100;-60
2022/12/14 08:14:18;;;;;;;24.58;17.85;;;;;;;1.45;74.86;94370.59;4222999;28;20055;-55
2022/12/14 08:16:19;;;;;;;25.65;16.63;;;;;;;1.15;75.71;94390.72;4218027;28;20124;-54
2022/12/14 08:18:21;;;;;;;25.13;18.20;;;;;;;1.19;76.14;94386.19;4210454;28;20053;-57
2022/12/14 08:20:23;;;;;;;26.75;18.48;;;;;;;1.20;75.84;94392.97;4220777;28;20066;-60
2022/12/14 08:22:25;;;;;;;26.20;18.52;;;;;;;1.28;76.08;94395.84;4223411;28;20484;-59
2022/12/14 08:24:26;;;;;;;24.50;17.90;;;;;;;1.33;75.62;94395.50;4205843;28;20051;-58
2022/12/14 08:26:28;;;;;;;24.13;18.67;;;;;;;1.40;75.33;94404.47;4219541;28;20189;-56
2022/12/14 08:28:36;;;;;;;38.05;24.02;;;;;;;1.53;76.02;94399.25;4215663;28;20377;-59
2022/12/14 08:30:39;;;;;;;33.58;22.63;;;;;;;1.67;76.06;94399.03;4223835;28;20134;-58
2022/12/14 08:32:40;;;;;;;47.70;27.67;;;;;;;1.83;75.99;94401.34;4221508;28;20108;-60
2022/12/14 08:34:42;;;;;;;24.70;18.63;;;;;;;1.88;75.33;94394.06;4217449;28;20291;-58
2022/12/14 08:36:44;;;;;;;26.60;18.98;;;;;;;2.01;75.28;94379.28;4216869;28;20056;-61
2022/12/14 08:38:51;;;;;;;24.65;18.95;;;;;;;2.12;74.61;94377.66;4223305;28;20051;-61
2022/12/14 08:40:52;;;;;;;54.78;36.35;;;;;;;2.25;74.37;94370.63;4217276;28;20058;-60
2022/12/14 08:42:54;;;;;;;25.92;18.23;;;;;;;2.31;73.21;94364.97;4212373;28;20056;-57
2022/12/14 08:44:56;;;;;;;24.83;18.25;;;;;;;2.10;72.47;94374.38;4184648;28;20053;-60
2022/12/14 08:46:59;;;;;;;26.38;17.05;;;;;;;1.96;73.43;94378.81;4203016;28;20053;-57
2022/12/14 08:49:00;;;;;;;28.25;17.98;;;;;;;1.97;73.62;94383.03;4203508;28;20048;-58
2022/12/14 08:51:03;;;;;;;22.58;17.38;;;;;;;1.97;73.70;94380.44;4210519;28;20114;-59
2022/12/14 08:53:05;;;;;;;29.13;17.70;;;;;;;1.76;73.72;94382.84;4212757;28;20064;-57
2022/12/14 08:55:07;;;;;;;24.75;18.95;;;;;;;1.39;75.11;94377.81;4215130;28;20187;-58
2022/12/14 08:57:08;;;;;;;24.50;15.93;;;;;;;1.43;75.24;94383.59;4202092;28;20059;-55
2022/12/14 08:59:10;;;;;;;23.75;16.85;;;;;;;1.53;75.02;94384.56;4206542;28;20056;-60
2022/12/14 09:01:32;;;;;;;24.23;16.50;;;;;;;1.51;74.77;94381.28;4202502;28;20043;-57
2022/12/14 09:03:35;;;;;;;22.58;16.90;;;;;;;1.72;75.29;94370.28;4214875;28;20078;-55
2022/12/14 09:05:37;;;;;;;27.42;18.88;;;;;;;1.66;73.94;94375.91;4204403;28;20405;-58
2022/12/14 09:07:39;;;;;;;27.52;18.70;;;;;;;1.49;75.23;94370.25;4209372;28;20048;-58
2022/12/14 09:09:41;;;;;;;24.55;17.40;;;;;;;1.42;75.26;94376.78;4204323;28;20116;-58
2022/12/14 09:11:43;;;;;;;27.73;17.55;;;;;;;1.47;75.33;94366.94;4214531;28;20045;-58
2022/12/14 09:13:45;;;;;;;26.00;17.50;;;;;;;1.27;75.78;94370.13;4204263;28;20139;-60
2022/12/14 09:16:07;;;;;;;25.00;17.75;;;;;;;1.34;76.17;94363.63;4213695;28;20425;-58
2022/12/14 09:18:09;;;;;;;23.48;17.90;;;;;;;1.26;75.56;94361.56;4205007;28;20064;-58
2022/12/14 09:20:12;;;;;;;23.00;18.45;;;;;;;1.34;75.58;94361.84;4203571;28;20115;-60
2022/12/14 09:22:14;;;;;;;26.98;17.83;;;;;;;1.34;76.16;94364.44;4211223;28;20086;-58
2022/12/14 09:24:18;;;;;;;26.00;17.48;;;;;;;1.48;75.75;94360.00;4207781;28;20052;-58
2022/12/14 09:26:21;;;;;;;23.90;16.52;;;;;;;1.51;75.14;94360.63;4215661;28;20147;-59
2022/12/14 09:28:23;;;;;;;21.33;16.43;;;;;;;1.57;75.27;94359.34;4215834;28;20060;-56
2022/12/14 09:30:25;;;;;;;20.10;14.65;;;;;;;1.62;74.69;94347.75;4226023;28;20283;-57
2022/12/14 09:32:28;;;;;;;20.98;15.85;;;;;;;1.68;74.52;94340.47;4213503;28;20503;-60
2022/12/14 09:34:30;;;;;;;19.30;14.65;;;;;;;1.70;74.40;94336.00;4206799;28;20060;-60
2022/12/14 09:36:32;;;;;;;19.52;14.75;;;;;;;1.60;74.60;94331.53;4205638;28;20087;-59
2022/12/14 09:38:36;;;;;;;22.45;15.45;;;;;;;1.75;74.57;94339.09;4216510;28;20154;-59
2022/12/14 09:40:38;;;;;;;;;;;;;;;1.85;74.93;94342.63;4209535;28;20082;-57
2022/12/14 09:43:09;;;;;;;20.10;14.95;;;;;;;2.02;74.15;94342.19;4209927;28;20392;-56
2022/12/14 09:45:16;;;;;;;19.90;15.90;;;;;;;2.11;73.53;94343.25;4188319;28;20052;-58
2022/12/14 09:47:22;;;;;;;20.15;15.55;;;;;;;2.23;73.38;94341.47;4228717;28;20109;-55
2022/12/14 09:49:38;;;;;;;42.22;28.48;;;;;;;2.25;73.43;94344.78;4208492;28;20134;-57
2022/12/14 09:51:40;;;;;;;22.10;17.05;;;;;;;2.21;73.26;94343.34;4200726;28;20052;-56
2022/12/14 09:53:44;;;;;;;21.13;13.60;;;;;;;1.53;73.61;94343.25;4208510;28;20053;-59
2022/12/14 09:55:48;;;;;;;21.52;14.88;;;;;;;1.41;75.32;94349.31;4185301;28;20506;-58
2022/12/14 09:58:11;;;;;;;20.30;14.35;;;;;;;1.57;75.78;94339.53;4193316;28;20481;-57
2022/12/14 10:00:18;;;;;;;52.60;29.80;;;;;;;1.85;76.36;94321.97;4195108;28;20072;-61